Finnmarken — LDBE — position and weather

sailwx.info

Track history (hours):
 
Tides and Currents Weather Stations Pressure Air Temp Water Temp Dewpoint Dewpoint Depression Visibility Wind Speed Wind Dir Waves Ship Positions

Finnmarken

Last reported at 2018-Jun-22 23:01 UTC. Time now 2018-Jun-22 23:01 UTC.
Position N 63°04' E 007°25'.

Length 139 m; draft 5.2 m.

Type: Passenger vessel. MMSI: 259210000.

Date/timePositionNaut miles runAvg speedWind from/ knotsBaromVisibWave heightAir tempDewpointWater temp
2018-Jun-22 23:01N 63°04' E 007°25'713.9
2018-Jun-22 22:31N 63°02' E 007°11'714.3
2018-Jun-22 22:00N 62°59' E 006°56'611.2
2018-Jun-22 21:30N 62°54' E 006°52'713.3
2018-Jun-22 21:00N 62°48' E 006°58'510.3
2018-Jun-22 20:30N 62°43' E 007°04'3 4.9
2018-Jun-22 19:59N 62°44' E 007°09'0 0.7
2018-Jun-22 19:30N 62°44' E 007°09'612.3
2018-Jun-22 19:00N 62°42' E 006°56'814.7
2018-Jun-22 18:29N 62°39' E 006°41'714.8
2018-Jun-22 18:00N 62°38' E 006°26'714.1
2018-Jun-22 17:30N 62°34' E 006°12'611.7
2018-Jun-22 17:00N 62°29' E 006°09'0 0.0
2018-Jun-22 16:29N 62°29' E 006°09'2 4.2
2018-Jun-22 16:00N 62°28' E 006°05'611.3
2018-Jun-22 15:30N 62°23' E 006°12'816.2
2018-Jun-22 15:00N 62°25' E 006°29'815.3
2018-Jun-22 14:30N 62°27' E 006°45'713.6
2018-Jun-22 14:00N 62°22' E 006°56'815.2
2018-Jun-22 13:30N 62°15' E 007°01'714.1
2018-Jun-22 12:59N 62°08' E 006°58'4 9.0
2018-Jun-22 12:30N 62°07' E 007°07'2 4.0
2018-Jun-22 12:00N 62°06' E 007°11'0 0.5
2018-Jun-22 11:29N 62°07' E 007°11'612.7
2018-Jun-22 10:59N 62°07' E 006°58'714.4
2018-Jun-22 10:30N 62°13' E 007°01'714.8
2018-Jun-22 10:00N 62°20' E 006°57'713.7
2018-Jun-22 09:30N 62°26' E 006°50'714.0
2018-Jun-22 09:00N 62°26' E 006°35'714.4
2018-Jun-22 08:30N 62°24' E 006°20'713.7
2018-Jun-22 08:00N 62°24' E 006°05'5 9.4
2018-Jun-22 07:29N 62°29' E 006°09'0 0.1
2018-Jun-22 07:01N 62°29' E 006°09'712.7
2018-Jun-22 06:30N 62°26' E 005°56'713.8
2018-Jun-22 06:00N 62°21' E 005°46'2 4.2
2018-Jun-22 05:30N 62°19' E 005°45'713.6
2018-Jun-22 04:58N 62°18' E 005°29'713.9
2018-Jun-22 04:30N 62°16' E 005°16'713.5
2018-Jun-22 04:00N 62°11' E 005°05'713.1
2018-Jun-22 03:30N 62°05' E 005°07'713.8
2018-Jun-22 03:00N 61°58' E 005°09'3 6.6
2018-Jun-22 02:30N 61°55' E 005°07'612.8
2018-Jun-22 02:00N 61°50' E 005°16'714.0
2018-Jun-22 01:30N 61°46' E 005°03'612.9
2018-Jun-22 01:00N 61°41' E 004°58'5 9.4
2018-Jun-22 00:30N 61°36' E 005°01'2 4.9
2018-Jun-22 00:00N 61°34' E 004°58'612.8
2018-Jun-21 23:30N 61°28' E 004°58'714.0
2018-Jun-21 23:00N 61°23' E 004°49'713.7
2018-Jun-21 22:30N 61°16' E 004°45'712.8
2018-Jun-21 22:00N 61°09' E 004°45'713.9
2018-Jun-21 21:30N 61°02' E 004°44'713.8
2018-Jun-21 21:00N 60°56' E 004°46'713.4
2018-Jun-21 20:29N 60°49' E 004°44'714.2
2018-Jun-21 20:00N 60°42' E 004°50'714.3
2018-Jun-21 19:30N 60°36' E 004°55'713.7
2018-Jun-21 19:00N 60°29' E 004°59'713.5
2018-Jun-21 18:30N 60°24' E 005°08'510.0
2018-Jun-21 17:58N 60°24' E 005°19'0 0.0
2018-Jun-21 17:30N 60°24' E 005°19'0 0.0
2018-Jun-21 17:00N 60°24' E 005°19'0 0.0
2018-Jun-21 16:27N 60°24' E 005°19'0 0.0
2018-Jun-21 16:00N 60°24' E 005°19'0 0.0
2018-Jun-21 15:30N 60°24' E 005°19'0 0.0
2018-Jun-21 14:57N 60°24' E 005°19'0 0.0
2018-Jun-21 14:30N 60°24' E 005°19'0 0.0
2018-Jun-21 14:00N 60°24' E 005°19'0 0.0
2018-Jun-21 13:30N 60°24' E 005°19'0 0.0
2018-Jun-21 13:00N 60°24' E 005°19'0 0.2
2018-Jun-21 12:30N 60°24' E 005°18'713.1
2018-Jun-21 12:00N 60°30' E 005°13'714.3
2018-Jun-21 11:30N 60°33' E 005°00'612.8
2018-Jun-21 11:00N 60°39' E 004°54'714.3
2018-Jun-21 10:30N 60°45' E 004°48'712.8
2018-Jun-21 10:00N 60°51' E 004°46'714.3
2018-Jun-21 09:30N 60°59' E 004°46'714.5
2018-Jun-21 09:00N 61°03' E 004°57'713.7
2018-Jun-21 08:30N 61°10' E 005°01'713.8
2018-Jun-21 07:59N 61°16' E 004°54'611.9
2018-Jun-21 07:30N 61°21' E 005°02'714.1
2018-Jun-21 06:59N 61°28' E 004°59'713.8
2018-Jun-21 06:30N 61°34' E 004°58'3 5.0
2018-Jun-21 06:00N 61°36' E 005°01'3 7.0
2018-Jun-21 05:30N 61°39' E 004°59'612.9
2018-Jun-21 05:00N 61°46' E 005°01'714.3
2018-Jun-21 04:30N 61°50' E 005°14'510.4
2018-Jun-21 03:58N 61°54' E 005°08'2 4.3
2018-Jun-21 03:30N 61°56' E 005°07'2 4.5
2018-Jun-21 03:00N 61°58' E 005°09'714.2
2018-Jun-21 02:30N 62°05' E 005°06'713.7
2018-Jun-21 02:00N 62°12' E 005°06'713.9
2018-Jun-21 01:30N 62°16' E 005°18'713.9
2018-Jun-21 00:59N 62°19' E 005°33'611.0
2018-Jun-21 00:29N 62°20' E 005°44'2 4.3
2018-Jun-21 00:00N 62°22' E 005°47'713.4
2018-Jun-20 23:30N 62°26' E 005°57'611.8
2018-Jun-20 23:00N 62°29' E 006°09'0 0.0
2018-Jun-20 22:30N 62°29' E 006°09'0 0.0
2018-Jun-20 22:00N 62°29' E 006°09'611.7
2018-Jun-20 21:29N 62°34' E 006°13'713.7
2018-Jun-20 21:00N 62°38' E 006°26'714.4
2018-Jun-20 20:30N 62°39' E 006°41'714.8
2018-Jun-20 20:01N 62°42' E 006°56'713.5
2018-Jun-20 19:30N 62°44' E 007°10'0 0.1
2018-Jun-20 18:59N 62°44' E 007°09'2 4.8
2018-Jun-20 18:30N 62°44' E 007°05'611.5
2018-Jun-20 18:00N 62°48' E 006°58'814.9
2018-Jun-20 17:30N 62°55' E 006°50'613.1
2018-Jun-20 17:00N 62°60' E 006°60'714.1
2018-Jun-20 16:30N 63°03' E 007°14'714.3
2018-Jun-20 16:00N 63°05' E 007°29'612.6
2018-Jun-20 15:30N 63°06' E 007°42'1 1.9
2018-Jun-20 15:00N 63°07' E 007°44'4 7.5
2018-Jun-20 14:30N 63°10' E 007°47'714.9
2018-Jun-20 14:00N 63°14' E 008°00'714.5
2018-Jun-20 13:30N 63°18' E 008°14'714.0
2018-Jun-20 12:59N 63°23' E 008°26'713.6
2018-Jun-20 12:30N 63°26' E 008°40'714.0
2018-Jun-20 12:00N 63°28' E 008°54'611.5
2018-Jun-20 11:30N 63°30' E 009°06'612.7
2018-Jun-20 11:00N 63°33' E 009°19'713.6
2018-Jun-20 10:30N 63°37' E 009°32'611.5
2018-Jun-20 10:00N 63°40' E 009°44'714.1
2018-Jun-20 09:30N 63°33' E 009°52'713.2
2018-Jun-20 08:59N 63°29' E 010°02'613.2
2018-Jun-20 08:30N 63°28' E 010°17'4 7.9
2018-Jun-20 08:00N 63°27' E 010°24'0 0.0
2018-Jun-20 07:27N 63°27' E 010°24'0 0.0
2018-Jun-20 06:58N 63°27' E 010°24'0 0.0
2018-Jun-20 06:30N 63°27' E 010°24'0 0.0
2018-Jun-20 06:00N 63°27' E 010°24'0 0.0
2018-Jun-20 05:30N 63°27' E 010°24'0 0.0
2018-Jun-20 05:00N 63°27' E 010°24'0 0.3
2018-Jun-20 04:29N 63°27' E 010°24'611.6
2018-Jun-20 03:57N 63°28' E 010°11'817.0
2018-Jun-20 03:30N 63°30' E 009°54'917.0
2018-Jun-20 02:59N 63°38' E 009°47'815.7
2018-Jun-20 02:30N 63°38' E 009°30'714.3
2018-Jun-20 01:59N 63°45' E 009°32'713.6
2018-Jun-20 01:30N 63°51' E 009°39'713.1
2018-Jun-20 01:00N 63°56' E 009°47'713.9
2018-Jun-20 00:30N 64°03' E 009°50'714.6
2018-Jun-20 00:00N 64°07' E 010°03'714.8
2018-Jun-19 23:30N 64°13' E 010°13'613.1
2018-Jun-19 23:00N 64°18' E 010°23'612.0
2018-Jun-19 22:30N 64°24' E 010°26'713.9
2018-Jun-19 22:00N 64°31' E 010°28'612.5
2018-Jun-19 21:30N 64°36' E 010°38'612.5
2018-Jun-19 21:00N 64°41' E 010°47'612.8
2018-Jun-19 20:30N 64°45' E 010°59'713.4
2018-Jun-19 20:00N 64°49' E 011°09'3 6.2
2018-Jun-19 19:30N 64°52' E 011°14'0 0.0
2018-Jun-19 19:00N 64°52' E 011°14'0 0.6
2018-Jun-19 18:30N 64°52' E 011°15'713.8
2018-Jun-19 18:01N 64°57' E 011°23'713.5
2018-Jun-19 17:31N 65°01' E 011°36'713.1
2018-Jun-19 17:00N 65°06' E 011°48'713.7
2018-Jun-19 16:30N 65°12' E 011°53'713.4
2018-Jun-19 16:00N 65°19' E 011°60'713.6
2018-Jun-19 15:30N 65°24' E 012°08'5 8.8
2018-Jun-19 14:58N 65°29' E 012°13'0 0.0
2018-Jun-19 14:29N 65°29' E 012°13'0 0.0
2018-Jun-19 14:00N 65°29' E 012°13'3 6.7
2018-Jun-19 13:30N 65°32' E 012°12'714.2
2018-Jun-19 13:00N 65°39' E 012°15'714.3
2018-Jun-19 12:29N 65°46' E 012°19'714.3
2018-Jun-19 12:00N 65°53' E 012°22'713.9
2018-Jun-19 11:30N 65°59' E 012°29'4 8.7
2018-Jun-19 11:00N 66°01' E 012°38'0 0.1
2018-Jun-19 10:29N 66°01' E 012°38'4 8.6
2018-Jun-19 10:00N 66°05' E 012°42'714.3
2018-Jun-19 09:30N 66°10' E 012°56'3 6.1
2018-Jun-19 09:00N 66°12' E 012°60'611.2
2018-Jun-19 08:30N 66°18' E 012°56'714.6
2018-Jun-19 08:00N 66°25' E 012°59'714.3
2018-Jun-19 07:31N 66°32' E 012°58'612.9
2018-Jun-19 07:00N 66°38' E 013°05'714.3
2018-Jun-19 06:30N 66°44' E 013°12'713.8
2018-Jun-19 06:00N 66°48' E 013°26'713.3
2018-Jun-19 05:30N 66°51' E 013°41'2 4.2
2018-Jun-19 05:00N 66°53' E 013°39'611.5
2018-Jun-19 04:31N 66°57' E 013°29'713.6
2018-Jun-19 04:00N 67°00' E 013°44'714.3
2018-Jun-19 03:30N 67°06' E 013°57'713.7
2018-Jun-19 03:00N 67°11' E 014°06'714.2
2018-Jun-19 02:30N 67°16' E 014°19'2 3.9
2018-Jun-19 02:00N 67°17' E 014°24'0 0.0
2018-Jun-19 01:31N 67°17' E 014°24'0 0.0
2018-Jun-19 01:01N 67°17' E 014°24'0 0.0
2018-Jun-19 00:30N 67°17' E 014°24'2 4.0
2018-Jun-19 00:01N 67°19' E 014°23'714.5
2018-Jun-18 23:30N 67°26' E 014°25'815.1
2018-Jun-18 23:00N 67°34' E 014°20'714.6
2018-Jun-18 22:30N 67°41' E 014°14'815.2
2018-Jun-18 22:00N 67°48' E 014°07'714.4
2018-Jun-18 21:30N 67°55' E 014°01'814.7
2018-Jun-18 20:59N 68°02' E 013°54'511.5
2018-Jun-18 20:30N 68°07' E 013°50'0 0.3
2018-Jun-18 20:01N 68°07' E 013°50'611.7
2018-Jun-18 19:30N 68°07' E 014°06'714.4
2018-Jun-18 19:00N 68°11' E 014°22'510.2
2018-Jun-18 18:29N 68°14' E 014°34'0 0.0
2018-Jun-18 18:00N 68°14' E 014°34'0 0.0
2018-Jun-18 17:30N 68°14' E 014°34'0 0.0
2018-Jun-18 17:00N 68°14' E 014°34'2 3.4
2018-Jun-18 16:30N 68°13' E 014°39'611.9
2018-Jun-18 15:59N 68°14' E 014°55'713.9
2018-Jun-18 15:30N 68°21' E 014°59'1 1.4
2018-Jun-18 15:00N 68°21' E 014°60'3 6.5
2018-Jun-18 14:30N 68°24' E 015°06'612.1
2018-Jun-18 14:00N 68°29' E 015°13'714.1
2018-Jun-18 13:30N 68°34' E 014°60'2 3.7
2018-Jun-18 13:00N 68°34' E 014°55'0 0.0
2018-Jun-18 12:30N 68°34' E 014°55'2 3.3
2018-Jun-18 12:00N 68°34' E 014°59'714.2
2018-Jun-18 11:30N 68°37' E 015°18'611.1
2018-Jun-18 11:00N 68°42' E 015°25'0 0.0
2018-Jun-18 10:30N 68°42' E 015°25'4 7.8
2018-Jun-18 09:59N 68°46' E 015°26'613.2
2018-Jun-18 09:30N 68°52' E 015°31'612.9
2018-Jun-18 09:00N 68°58' E 015°38'1 1.3
2018-Jun-18 08:29N 68°58' E 015°40'510.5
2018-Jun-18 08:01N 68°59' E 015°54'713.9
2018-Jun-18 07:30N 68°57' E 016°12'714.0
2018-Jun-18 07:00N 68°52' E 016°27'5 9.9
2018-Jun-18 06:30N 68°48' E 016°33'0 0.4
2018-Jun-18 06:00N 68°48' E 016°33'5 9.5
2018-Jun-18 05:30N 68°51' E 016°43'713.9
2018-Jun-18 05:00N 68°55' E 016°58'714.2
2018-Jun-18 04:30N 68°60' E 017°13'714.2
2018-Jun-18 04:00N 69°06' E 017°25'714.8
2018-Jun-18 03:30N 69°08' E 017°44'714.2
2018-Jun-18 03:00N 69°12' E 018°01'2 4.4
2018-Jun-18 02:30N 69°14' E 017°58'2 4.6
2018-Jun-18 02:00N 69°16' E 017°58'713.5
2018-Jun-18 01:29N 69°23' E 018°05'713.6
2018-Jun-18 00:59N 69°29' E 018°11'715.0
2018-Jun-18 00:30N 69°32' E 018°30'713.0
2018-Jun-18 00:00N 69°34' E 018°48'611.9
2018-Jun-17 23:30N 69°39' E 018°58'0 0.0
2018-Jun-17 22:59N 69°39' E 018°58'0 0.0
2018-Jun-17 22:29N 69°39' E 018°58'0 0.0
2018-Jun-17 21:59N 69°39' E 018°58'1 1.3
2018-Jun-17 21:30N 69°39' E 018°59'713.9
2018-Jun-17 21:00N 69°46' E 019°06'814.9
2018-Jun-17 20:29N 69°49' E 019°27'714.8
2018-Jun-17 20:00N 69°51' E 019°46'815.1
2018-Jun-17 19:30N 69°56' E 020°03'714.5
2018-Jun-17 19:00N 69°60' E 020°21'714.6
2018-Jun-17 18:30N 70°02' E 020°42'713.7
2018-Jun-17 18:00N 70°04' E 021°01'2 3.5
2018-Jun-17 17:31N 70°02' E 020°59'712.8
2018-Jun-17 16:59N 70°08' E 021°05'713.9
2018-Jun-17 16:30N 70°15' E 021°12'714.7
2018-Jun-17 16:00N 70°19' E 021°29'4 8.7
2018-Jun-17 15:30N 70°16' E 021°39'611.6
2018-Jun-17 15:00N 70°20' E 021°53'612.8
2018-Jun-17 14:30N 70°19' E 022°11'510.7
2018-Jun-17 13:59N 70°14' E 022°21'2 4.5
2018-Jun-17 13:30N 70°16' E 022°19'713.6
2018-Jun-17 13:00N 70°23' E 022°23'714.3
2018-Jun-17 12:30N 70°27' E 022°41'714.1
2018-Jun-17 12:00N 70°31' E 022°58'714.3
2018-Jun-17 11:31N 70°36' E 023°14'714.8
2018-Jun-17 11:00N 70°39' E 023°34'2 4.7
2018-Jun-17 10:30N 70°40' E 023°41'0 0.0
2018-Jun-17 10:01N 70°40' E 023°41'0 0.0
2018-Jun-17 09:30N 70°40' E 023°41'0 0.0
2018-Jun-17 09:00N 70°40' E 023°41'3 6.7
2018-Jun-17 08:30N 70°43' E 023°35'713.6
2018-Jun-17 08:00N 70°48' E 023°47'713.8
2018-Jun-17 07:30N 70°53' E 024°02'714.4
2018-Jun-17 07:00N 70°57' E 024°19'713.5
2018-Jun-17 06:30N 71°02' E 024°35'3 6.1
2018-Jun-17 06:00N 70°60' E 024°41'510.4
2018-Jun-17 05:30N 70°59' E 024°57'713.8
2018-Jun-17 05:00N 70°59' E 025°19'612.2
2018-Jun-17 04:30N 70°56' E 025°34'714.0
2018-Jun-17 04:00N 70°58' E 025°55'2 3.5
2018-Jun-17 03:30N 70°59' E 025°58'2 3.7
2018-Jun-17 03:00N 70°58' E 026°03'714.8
2018-Jun-17 02:30N 70°59' E 026°25'713.8
2018-Jun-17 02:00N 70°59' E 026°47'714.2
2018-Jun-17 01:30N 70°59' E 027°08'5 9.0
2018-Jun-17 01:00N 70°57' E 027°20'611.8
2018-Jun-17 00:30N 71°02' E 027°10'714.6
2018-Jun-17 00:00N 71°06' E 027°28'612.5
2018-Jun-16 23:30N 71°07' E 027°47'3 3.8
2018-Jun-16 22:37N 71°04' E 027°52'214.0
2018-Jun-16 22:30N 71°05' E 027°56'714.3
2018-Jun-16 21:58N 71°07' E 028°18'715.2
2018-Jun-16 21:30N 71°02' E 028°36'715.0
2018-Jun-16 21:00N 70°57' E 028°53'714.0
2018-Jun-16 20:30N 70°53' E 029°09'1 2.4
2018-Jun-16 20:00N 70°52' E 029°07'612.8
2018-Jun-16 19:30N 70°50' E 029°25'715.0
2018-Jun-16 19:00N 70°45' E 029°44'613.1
2018-Jun-16 18:30N 70°39' E 029°48'2 3.7
2018-Jun-16 18:00N 70°38' E 029°44'510.5
2018-Jun-16 17:30N 70°42' E 029°54'612.5
2018-Jun-16 16:58N 70°42' E 030°13'714.3
2018-Jun-16 16:30N 70°38' E 030°28'714.4
2018-Jun-16 16:00N 70°32' E 030°44'713.6
2018-Jun-16 15:30N 70°28' E 030°58'611.9
2018-Jun-16 15:00N 70°23' E 031°06'0 0.0
2018-Jun-16 14:30N 70°23' E 031°06'0 0.1
2018-Jun-16 14:00N 70°22' E 031°06'4 8.0
2018-Jun-16 13:30N 70°18' E 031°07'714.2
2018-Jun-16 13:00N 70°13' E 030°55'714.5
2018-Jun-16 12:30N 70°07' E 030°41'714.5
2018-Jun-16 12:00N 70°01' E 030°28'714.5
2018-Jun-16 11:30N 69°56' E 030°15'714.6
2018-Jun-16 11:00N 69°49' E 030°06'510.5
2018-Jun-16 10:30N 69°44' E 030°04'0 0.0
2018-Jun-16 09:57N 69°44' E 030°04'0 0.0
2018-Jun-16 09:30N 69°44' E 030°04'0 0.0
2018-Jun-16 09:00N 69°44' E 030°04'0 0.0
2018-Jun-16 08:30N 69°44' E 030°04'0 0.0
2018-Jun-16 08:00N 69°44' E 030°04'0 0.0
2018-Jun-16 07:30N 69°44' E 030°04'0 0.7
2018-Jun-16 07:00N 69°44' E 030°04'612.6
2018-Jun-16 06:30N 69°50' E 030°05'713.9
2018-Jun-16 06:00N 69°56' E 029°55'714.5
2018-Jun-16 05:30N 70°03' E 029°44'2 3.4
2018-Jun-16 05:00N 70°04' E 029°44'1 1.4
2018-Jun-16 04:30N 70°04' E 029°42'712.8
2018-Jun-16 03:59N 70°03' E 030°01'714.1
2018-Jun-16 03:30N 70°05' E 030°20'714.5
2018-Jun-16 03:00N 70°09' E 030°38'714.7
2018-Jun-16 02:30N 70°13' E 030°55'714.5
2018-Jun-16 02:00N 70°19' E 031°07'3 6.4
2018-Jun-16 01:30N 70°23' E 031°06'4 8.3
2018-Jun-16 01:00N 70°26' E 031°01'714.6
2018-Jun-16 00:30N 70°32' E 030°46'714.6
2018-Jun-16 00:00N 70°37' E 030°30'714.2
2018-Jun-15 23:30N 70°42' E 030°15'612.5
2018-Jun-15 23:00N 70°43' E 029°57'712.9
2018-Jun-15 22:30N 70°38' E 029°44'1 1.9
2018-Jun-15 22:00N 70°38' E 029°46'612.0
2018-Jun-15 21:30N 70°44' E 029°48'612.7
2018-Jun-15 21:00N 70°48' E 029°32'713.3
2018-Jun-15 20:30N 70°52' E 029°15'612.1
2018-Jun-15 20:00N 70°55' E 028°60'612.7
2018-Jun-15 19:29N 70°60' E 028°45'713.2
2018-Jun-15 19:00N 71°04' E 028°29'713.5
2018-Jun-15 18:30N 71°07' E 028°12'8 6.4
2018-Jun-15 17:13N 71°04' E 027°50'313.8
2018-Jun-15 17:00N 71°07' E 027°47'611.7
2018-Jun-15 16:30N 71°07' E 027°29'815.5
2018-Jun-15 15:59N 71°01' E 027°11'510.9
2018-Jun-15 15:30N 70°57' E 027°20'3 6.4
2018-Jun-15 15:00N 70°59' E 027°12'714.8
2018-Jun-15 14:30N 70°59' E 026°50'815.3
2018-Jun-15 14:00N 70°59' E 026°26'714.6
2018-Jun-15 13:30N 70°58' E 026°04'2 4.5
2018-Jun-15 13:00N 70°59' E 025°58'0 0.5
2018-Jun-15 12:29N 70°59' E 025°58'0 0.0
2018-Jun-15 11:59N 70°59' E 025°58'0 0.0
2018-Jun-15 11:29N 70°59' E 025°58'0 0.0
2018-Jun-15 10:59N 70°59' E 025°58'0 0.0
2018-Jun-15 10:29N 70°59' E 025°58'0 0.0
2018-Jun-15 09:59N 70°59' E 025°58'0 0.0
2018-Jun-15 09:30N 70°59' E 025°58'4 7.1
2018-Jun-15 08:59N 70°57' E 025°50'613.1
2018-Jun-15 08:29N 70°56' E 025°30'612.2
2018-Jun-15 08:00N 70°59' E 025°13'713.5
2018-Jun-15 07:29N 70°60' E 024°52'4 7.0
2018-Jun-15 06:59N 70°60' E 024°41'1 1.4
2018-Jun-15 06:30N 70°60' E 024°43'5 9.6
2018-Jun-15 05:59N 71°00' E 024°28'715.0
2018-Jun-15 05:29N 70°55' E 024°12'815.3
2018-Jun-15 05:00N 70°50' E 023°55'815.8
2018-Jun-15 04:30N 70°45' E 023°38'5 9.7
2018-Jun-15 04:00N 70°40' E 023°41'0 0.0
2018-Jun-15 03:30N 70°40' E 023°41'0 0.1
2018-Jun-15 03:00N 70°40' E 023°41'612.1
2018-Jun-15 02:30N 70°38' E 023°24'815.6
2018-Jun-15 02:00N 70°33' E 023°05'815.9
2018-Jun-15 01:30N 70°28' E 022°46'815.4
2018-Jun-15 01:00N 70°24' E 022°27'713.7
2018-Jun-15 00:30N 70°18' E 022°18'4 7.1
2018-Jun-15 00:00N 70°14' E 022°21'510.7
2018-Jun-14 23:30N 70°19' E 022°12'714.0
2018-Jun-14 23:00N 70°22' E 021°54'612.1
2018-Jun-14 22:30N 70°22' E 021°36'715.3
2018-Jun-14 22:01N 70°17' E 021°21'714.1
2018-Jun-14 21:30N 70°11' E 021°08'714.9
2018-Jun-14 21:00N 70°04' E 021°03'2 4.8
2018-Jun-14 20:30N 70°02' E 020°59'3 7.0
2018-Jun-14 20:00N 70°03' E 020°50'714.0
2018-Jun-14 19:30N 70°00' E 020°31'713.9
2018-Jun-14 19:00N 69°58' E 020°11'714.6
2018-Jun-14 18:30N 69°54' E 019°55'714.3
2018-Jun-14 18:00N 69°50' E 019°37'714.2
2018-Jun-14 17:30N 69°47' E 019°18'612.8
2018-Jun-14 17:00N 69°43' E 019°03'5 9.6
2018-Jun-14 16:30N 69°39' E 018°58'0 0.0
2018-Jun-14 16:00N 69°39' E 018°58'0 0.0
2018-Jun-14 15:30N 69°39' E 018°58'0 0.0
2018-Jun-14 15:00N 69°39' E 018°58'0 0.0
2018-Jun-14 14:30N 69°39' E 018°58'0 0.0
2018-Jun-14 14:00N 69°39' E 018°58'0 0.0
2018-Jun-14 13:30N 69°39' E 018°58'0 0.0
2018-Jun-14 13:00N 69°39' E 018°58'0 0.0
2018-Jun-14 12:30N 69°39' E 018°58'3 6.6
2018-Jun-14 12:00N 69°36' E 018°53'714.1
2018-Jun-14 11:31N 69°32' E 018°36'714.5
2018-Jun-14 11:00N 69°30' E 018°17'612.5
2018-Jun-14 10:30N 69°24' E 018°07'613.0
2018-Jun-14 10:00N 69°19' E 017°59'510.0
2018-Jun-14 09:30N 69°14' E 017°58'0 0.0
2018-Jun-14 09:00N 69°14' E 017°58'4 7.5
2018-Jun-14 08:30N 69°10' E 017°58'713.8
2018-Jun-14 08:00N 69°07' E 017°40'713.7
2018-Jun-14 07:30N 69°04' E 017°23'713.8
2018-Jun-14 07:00N 68°59' E 017°11'714.0
2018-Jun-14 06:30N 68°54' E 016°56'714.3
2018-Jun-14 06:00N 68°50' E 016°40'3 6.2
2018-Jun-14 05:29N 68°48' E 016°33'0 0.0
2018-Jun-14 04:59N 68°48' E 016°33'1 1.8
2018-Jun-14 04:30N 68°49' E 016°35'611.1
2018-Jun-14 04:00N 68°53' E 016°25'713.7
2018-Jun-14 03:30N 68°57' E 016°10'713.9
2018-Jun-14 03:00N 68°59' E 015°51'5 9.5
2018-Jun-14 02:30N 68°58' E 015°39'4 7.6
2018-Jun-14 02:00N 68°55' E 015°35'714.0
2018-Jun-14 01:29N 68°48' E 015°26'612.3
2018-Jun-14 01:00N 68°42' E 015°25'4 7.4
2018-Jun-14 00:30N 68°38' E 015°23'714.5
2018-Jun-14 00:00N 68°34' E 015°06'4 8.2
2018-Jun-13 23:30N 68°34' E 014°55'5 9.0
2018-Jun-13 23:00N 68°32' E 015°06'611.5
2018-Jun-13 22:30N 68°27' E 015°11'715.2
2018-Jun-13 22:00N 68°20' E 015°01'2 3.8
2018-Jun-13 21:30N 68°22' E 014°58'611.5
2018-Jun-13 21:00N 68°16' E 014°57'510.2
2018-Jun-13 20:30N 68°14' E 014°45'4 8.1
2018-Jun-13 20:00N 68°14' E 014°34'0 0.0
2018-Jun-13 19:29N 68°14' E 014°34'0 0.1
2018-Jun-13 19:00N 68°14' E 014°34'510.9
2018-Jun-13 18:31N 68°11' E 014°22'714.3
2018-Jun-13 18:00N 68°07' E 014°06'611.6
2018-Jun-13 17:30N 68°07' E 013°50'0 0.0
2018-Jun-13 17:00N 68°07' E 013°50'3 6.4
2018-Jun-13 16:30N 68°04' E 013°52'815.3
2018-Jun-13 16:00N 67°57' E 013°59'715.2
2018-Jun-13 15:30N 67°50' E 014°06'815.1
2018-Jun-13 14:59N 67°42' E 014°12'715.1
2018-Jun-13 14:30N 67°35' E 014°19'715.0
2018-Jun-13 14:00N 67°28' E 014°23'713.7
2018-Jun-13 13:30N 67°21' E 014°24'4 8.3
2018-Jun-13 13:00N 67°17' E 014°23'0 0.0
2018-Jun-13 12:28N 67°17' E 014°23'0 0.0
2018-Jun-13 11:58N 67°17' E 014°23'0 0.0
2018-Jun-13 11:28N 67°17' E 014°23'0 0.0
2018-Jun-13 10:58N 67°17' E 014°23'0 0.0
2018-Jun-13 10:28N 67°17' E 014°23'3 6.6
2018-Jun-13 10:01N 67°16' E 014°17'715.0
2018-Jun-13 09:31N 67°10' E 014°03'815.1
2018-Jun-13 09:01N 67°04' E 013°53'714.9
2018-Jun-13 08:31N 66°60' E 013°37'612.3
2018-Jun-13 08:00N 66°54' E 013°31'5 9.5
2018-Jun-13 07:30N 66°52' E 013°42'5 9.1
2018-Jun-13 07:00N 66°49' E 013°33'4 8.1
2018-Jun-13 06:30N 66°48' E 013°23'714.2
2018-Jun-13 06:00N 66°43' E 013°11'714.9
2018-Jun-13 05:31N 66°36' E 013°04'612.3
2018-Jun-13 05:00N 66°30' E 012°59'714.8
2018-Jun-13 04:30N 66°23' E 012°58'815.2
2018-Jun-13 03:59N 66°15' E 012°54'4 7.8
2018-Jun-13 03:30N 66°12' E 013°00'612.0
2018-Jun-13 03:00N 66°08' E 012°50'714.3
2018-Jun-13 02:30N 66°02' E 012°38'1 1.9
2018-Jun-13 02:00N 66°01' E 012°38'3 7.0
2018-Jun-13 01:30N 65°60' E 012°31'714.5
2018-Jun-13 01:00N 65°53' E 012°22'814.7
2018-Jun-13 00:29N 65°46' E 012°19'714.7
2018-Jun-13 00:00N 65°39' E 012°15'714.7
2018-Jun-12 23:29N 65°32' E 012°12'  
Track history (hours):
 
Tides and Currents Weather Stations Pressure Air Temp Water Temp Dewpoint Dewpoint Depression Visibility Wind Speed Wind Dir Waves Ship Positions

Finnmarken

Last reported at 2018-Jun-22 23:01 UTC. Time now 2018-Jun-22 23:01 UTC.
Position N 63°04' E 007°25'.

Length 139 m; draft 5.2 m.

Type: Passenger vessel. MMSI: 259210000.

Date/timePositionNaut miles runAvg speedWind from/ knotsBaromVisibWave heightAir tempDewpointWater temp
2018-Jun-22 23:01N 63°04' E 007°25'713.9
2018-Jun-22 22:31N 63°02' E 007°11'714.3
2018-Jun-22 22:00N 62°59' E 006°56'611.2
2018-Jun-22 21:30N 62°54' E 006°52'713.3
2018-Jun-22 21:00N 62°48' E 006°58'510.3
2018-Jun-22 20:30N 62°43' E 007°04'3 4.9
2018-Jun-22 19:59N 62°44' E 007°09'0 0.7
2018-Jun-22 19:30N 62°44' E 007°09'612.3
2018-Jun-22 19:00N 62°42' E 006°56'814.7
2018-Jun-22 18:29N 62°39' E 006°41'714.8
2018-Jun-22 18:00N 62°38' E 006°26'714.1
2018-Jun-22 17:30N 62°34' E 006°12'611.7
2018-Jun-22 17:00N 62°29' E 006°09'0 0.0
2018-Jun-22 16:29N 62°29' E 006°09'2 4.2
2018-Jun-22 16:00N 62°28' E 006°05'611.3
2018-Jun-22 15:30N 62°23' E 006°12'816.2
2018-Jun-22 15:00N 62°25' E 006°29'815.3
2018-Jun-22 14:30N 62°27' E 006°45'713.6
2018-Jun-22 14:00N 62°22' E 006°56'815.2
2018-Jun-22 13:30N 62°15' E 007°01'714.1
2018-Jun-22 12:59N 62°08' E 006°58'4 9.0
2018-Jun-22 12:30N 62°07' E 007°07'2 4.0
2018-Jun-22 12:00N 62°06' E 007°11'0 0.5
2018-Jun-22 11:29N 62°07' E 007°11'612.7
2018-Jun-22 10:59N 62°07' E 006°58'714.4
2018-Jun-22 10:30N 62°13' E 007°01'714.8
2018-Jun-22 10:00N 62°20' E 006°57'713.7
2018-Jun-22 09:30N 62°26' E 006°50'714.0
2018-Jun-22 09:00N 62°26' E 006°35'714.4
2018-Jun-22 08:30N 62°24' E 006°20'713.7
2018-Jun-22 08:00N 62°24' E 006°05'5 9.4
2018-Jun-22 07:29N 62°29' E 006°09'0 0.1
2018-Jun-22 07:01N 62°29' E 006°09'712.7
2018-Jun-22 06:30N 62°26' E 005°56'713.8
2018-Jun-22 06:00N 62°21' E 005°46'2 4.2
2018-Jun-22 05:30N 62°19' E 005°45'713.6
2018-Jun-22 04:58N 62°18' E 005°29'713.9
2018-Jun-22 04:30N 62°16' E 005°16'713.5
2018-Jun-22 04:00N 62°11' E 005°05'713.1
2018-Jun-22 03:30N 62°05' E 005°07'713.8
2018-Jun-22 03:00N 61°58' E 005°09'3 6.6
2018-Jun-22 02:30N 61°55' E 005°07'612.8
2018-Jun-22 02:00N 61°50' E 005°16'714.0
2018-Jun-22 01:30N 61°46' E 005°03'612.9
2018-Jun-22 01:00N 61°41' E 004°58'5 9.4
2018-Jun-22 00:30N 61°36' E 005°01'2 4.9
2018-Jun-22 00:00N 61°34' E 004°58'612.8
2018-Jun-21 23:30N 61°28' E 004°58'714.0
2018-Jun-21 23:00N 61°23' E 004°49'713.7
2018-Jun-21 22:30N 61°16' E 004°45'712.8
2018-Jun-21 22:00N 61°09' E 004°45'713.9
2018-Jun-21 21:30N 61°02' E 004°44'713.8
2018-Jun-21 21:00N 60°56' E 004°46'713.4
2018-Jun-21 20:29N 60°49' E 004°44'714.2
2018-Jun-21 20:00N 60°42' E 004°50'714.3
2018-Jun-21 19:30N 60°36' E 004°55'713.7
2018-Jun-21 19:00N 60°29' E 004°59'713.5
2018-Jun-21 18:30N 60°24' E 005°08'510.0
2018-Jun-21 17:58N 60°24' E 005°19'0 0.0
2018-Jun-21 17:30N 60°24' E 005°19'0 0.0
2018-Jun-21 17:00N 60°24' E 005°19'0 0.0
2018-Jun-21 16:27N 60°24' E 005°19'0 0.0
2018-Jun-21 16:00N 60°24' E 005°19'0 0.0
2018-Jun-21 15:30N 60°24' E 005°19'0 0.0
2018-Jun-21 14:57N 60°24' E 005°19'0 0.0
2018-Jun-21 14:30N 60°24' E 005°19'0 0.0
2018-Jun-21 14:00N 60°24' E 005°19'0 0.0
2018-Jun-21 13:30N 60°24' E 005°19'0 0.0
2018-Jun-21 13:00N 60°24' E 005°19'0 0.2
2018-Jun-21 12:30N 60°24' E 005°18'713.1
2018-Jun-21 12:00N 60°30' E 005°13'714.3
2018-Jun-21 11:30N 60°33' E 005°00'612.8
2018-Jun-21 11:00N 60°39' E 004°54'714.3
2018-Jun-21 10:30N 60°45' E 004°48'712.8
2018-Jun-21 10:00N 60°51' E 004°46'714.3
2018-Jun-21 09:30N 60°59' E 004°46'714.5
2018-Jun-21 09:00N 61°03' E 004°57'713.7
2018-Jun-21 08:30N 61°10' E 005°01'713.8
2018-Jun-21 07:59N 61°16' E 004°54'611.9
2018-Jun-21 07:30N 61°21' E 005°02'714.1
2018-Jun-21 06:59N 61°28' E 004°59'713.8
2018-Jun-21 06:30N 61°34' E 004°58'3 5.0
2018-Jun-21 06:00N 61°36' E 005°01'3 7.0
2018-Jun-21 05:30N 61°39' E 004°59'612.9
2018-Jun-21 05:00N 61°46' E 005°01'714.3
2018-Jun-21 04:30N 61°50' E 005°14'510.4
2018-Jun-21 03:58N 61°54' E 005°08'2 4.3
2018-Jun-21 03:30N 61°56' E 005°07'2 4.5
2018-Jun-21 03:00N 61°58' E 005°09'714.2
2018-Jun-21 02:30N 62°05' E 005°06'713.7
2018-Jun-21 02:00N 62°12' E 005°06'713.9
2018-Jun-21 01:30N 62°16' E 005°18'713.9
2018-Jun-21 00:59N 62°19' E 005°33'611.0
2018-Jun-21 00:29N 62°20' E 005°44'2 4.3
2018-Jun-21 00:00N 62°22' E 005°47'713.4
2018-Jun-20 23:30N 62°26' E 005°57'611.8
2018-Jun-20 23:00N 62°29' E 006°09'0 0.0
2018-Jun-20 22:30N 62°29' E 006°09'0 0.0
2018-Jun-20 22:00N 62°29' E 006°09'611.7
2018-Jun-20 21:29N 62°34' E 006°13'713.7
2018-Jun-20 21:00N 62°38' E 006°26'714.4
2018-Jun-20 20:30N 62°39' E 006°41'714.8
2018-Jun-20 20:01N 62°42' E 006°56'713.5
2018-Jun-20 19:30N 62°44' E 007°10'0 0.1
2018-Jun-20 18:59N 62°44' E 007°09'2 4.8
2018-Jun-20 18:30N 62°44' E 007°05'611.5
2018-Jun-20 18:00N 62°48' E 006°58'814.9
2018-Jun-20 17:30N 62°55' E 006°50'613.1
2018-Jun-20 17:00N 62°60' E 006°60'714.1
2018-Jun-20 16:30N 63°03' E 007°14'714.3
2018-Jun-20 16:00N 63°05' E 007°29'612.6
2018-Jun-20 15:30N 63°06' E 007°42'1 1.9
2018-Jun-20 15:00N 63°07' E 007°44'4 7.5
2018-Jun-20 14:30N 63°10' E 007°47'714.9
2018-Jun-20 14:00N 63°14' E 008°00'714.5
2018-Jun-20 13:30N 63°18' E 008°14'714.0
2018-Jun-20 12:59N 63°23' E 008°26'713.6
2018-Jun-20 12:30N 63°26' E 008°40'714.0
2018-Jun-20 12:00N 63°28' E 008°54'611.5
2018-Jun-20 11:30N 63°30' E 009°06'612.7
2018-Jun-20 11:00N 63°33' E 009°19'713.6
2018-Jun-20 10:30N 63°37' E 009°32'611.5
2018-Jun-20 10:00N 63°40' E 009°44'714.1
2018-Jun-20 09:30N 63°33' E 009°52'713.2
2018-Jun-20 08:59N 63°29' E 010°02'613.2
2018-Jun-20 08:30N 63°28' E 010°17'4 7.9
2018-Jun-20 08:00N 63°27' E 010°24'0 0.0
2018-Jun-20 07:27N 63°27' E 010°24'0 0.0
2018-Jun-20 06:58N 63°27' E 010°24'0 0.0
2018-Jun-20 06:30N 63°27' E 010°24'0 0.0
2018-Jun-20 06:00N 63°27' E 010°24'0 0.0
2018-Jun-20 05:30N 63°27' E 010°24'0 0.0
2018-Jun-20 05:00N 63°27' E 010°24'0 0.3
2018-Jun-20 04:29N 63°27' E 010°24'611.6
2018-Jun-20 03:57N 63°28' E 010°11'817.0
2018-Jun-20 03:30N 63°30' E 009°54'917.0
2018-Jun-20 02:59N 63°38' E 009°47'815.7
2018-Jun-20 02:30N 63°38' E 009°30'714.3
2018-Jun-20 01:59N 63°45' E 009°32'713.6
2018-Jun-20 01:30N 63°51' E 009°39'713.1
2018-Jun-20 01:00N 63°56' E 009°47'713.9
2018-Jun-20 00:30N 64°03' E 009°50'714.6
2018-Jun-20 00:00N 64°07' E 010°03'714.8
2018-Jun-19 23:30N 64°13' E 010°13'613.1
2018-Jun-19 23:00N 64°18' E 010°23'612.0
2018-Jun-19 22:30N 64°24' E 010°26'713.9
2018-Jun-19 22:00N 64°31' E 010°28'612.5
2018-Jun-19 21:30N 64°36' E 010°38'612.5
2018-Jun-19 21:00N 64°41' E 010°47'612.8
2018-Jun-19 20:30N 64°45' E 010°59'713.4
2018-Jun-19 20:00N 64°49' E 011°09'3 6.2
2018-Jun-19 19:30N 64°52' E 011°14'0 0.0
2018-Jun-19 19:00N 64°52' E 011°14'0 0.6
2018-Jun-19 18:30N 64°52' E 011°15'713.8
2018-Jun-19 18:01N 64°57' E 011°23'713.5
2018-Jun-19 17:31N 65°01' E 011°36'713.1
2018-Jun-19 17:00N 65°06' E 011°48'713.7
2018-Jun-19 16:30N 65°12' E 011°53'713.4
2018-Jun-19 16:00N 65°19' E 011°60'713.6
2018-Jun-19 15:30N 65°24' E 012°08'5 8.8
2018-Jun-19 14:58N 65°29' E 012°13'0 0.0
2018-Jun-19 14:29N 65°29' E 012°13'0 0.0
2018-Jun-19 14:00N 65°29' E 012°13'3 6.7
2018-Jun-19 13:30N 65°32' E 012°12'714.2
2018-Jun-19 13:00N 65°39' E 012°15'714.3
2018-Jun-19 12:29N 65°46' E 012°19'714.3
2018-Jun-19 12:00N 65°53' E 012°22'713.9
2018-Jun-19 11:30N 65°59' E 012°29'4 8.7
2018-Jun-19 11:00N 66°01' E 012°38'0 0.1
2018-Jun-19 10:29N 66°01' E 012°38'4 8.6
2018-Jun-19 10:00N 66°05' E 012°42'714.3
2018-Jun-19 09:30N 66°10' E 012°56'3 6.1
2018-Jun-19 09:00N 66°12' E 012°60'611.2
2018-Jun-19 08:30N 66°18' E 012°56'714.6
2018-Jun-19 08:00N 66°25' E 012°59'714.3
2018-Jun-19 07:31N 66°32' E 012°58'612.9
2018-Jun-19 07:00N 66°38' E 013°05'714.3
2018-Jun-19 06:30N 66°44' E 013°12'713.8
2018-Jun-19 06:00N 66°48' E 013°26'713.3
2018-Jun-19 05:30N 66°51' E 013°41'2 4.2
2018-Jun-19 05:00N 66°53' E 013°39'611.5
2018-Jun-19 04:31N 66°57' E 013°29'713.6
2018-Jun-19 04:00N 67°00' E 013°44'714.3
2018-Jun-19 03:30N 67°06' E 013°57'713.7
2018-Jun-19 03:00N 67°11' E 014°06'714.2
2018-Jun-19 02:30N 67°16' E 014°19'2 3.9
2018-Jun-19 02:00N 67°17' E 014°24'0 0.0
2018-Jun-19 01:31N 67°17' E 014°24'0 0.0
2018-Jun-19 01:01N 67°17' E 014°24'0 0.0
2018-Jun-19 00:30N 67°17' E 014°24'2 4.0
2018-Jun-19 00:01N 67°19' E 014°23'714.5
2018-Jun-18 23:30N 67°26' E 014°25'815.1
2018-Jun-18 23:00N 67°34' E 014°20'714.6
2018-Jun-18 22:30N 67°41' E 014°14'815.2
2018-Jun-18 22:00N 67°48' E 014°07'714.4
2018-Jun-18 21:30N 67°55' E 014°01'814.7
2018-Jun-18 20:59N 68°02' E 013°54'511.5
2018-Jun-18 20:30N 68°07' E 013°50'0 0.3
2018-Jun-18 20:01N 68°07' E 013°50'611.7
2018-Jun-18 19:30N 68°07' E 014°06'714.4
2018-Jun-18 19:00N 68°11' E 014°22'510.2
2018-Jun-18 18:29N 68°14' E 014°34'0 0.0
2018-Jun-18 18:00N 68°14' E 014°34'0 0.0
2018-Jun-18 17:30N 68°14' E 014°34'0 0.0
2018-Jun-18 17:00N 68°14' E 014°34'2 3.4
2018-Jun-18 16:30N 68°13' E 014°39'611.9
2018-Jun-18 15:59N 68°14' E 014°55'713.9
2018-Jun-18 15:30N 68°21' E 014°59'1 1.4
2018-Jun-18 15:00N 68°21' E 014°60'3 6.5
2018-Jun-18 14:30N 68°24' E 015°06'612.1
2018-Jun-18 14:00N 68°29' E 015°13'714.1
2018-Jun-18 13:30N 68°34' E 014°60'2 3.7
2018-Jun-18 13:00N 68°34' E 014°55'0 0.0
2018-Jun-18 12:30N 68°34' E 014°55'2 3.3
2018-Jun-18 12:00N 68°34' E 014°59'714.2
2018-Jun-18 11:30N 68°37' E 015°18'611.1
2018-Jun-18 11:00N 68°42' E 015°25'0 0.0
2018-Jun-18 10:30N 68°42' E 015°25'4 7.8
2018-Jun-18 09:59N 68°46' E 015°26'613.2
2018-Jun-18 09:30N 68°52' E 015°31'612.9
2018-Jun-18 09:00N 68°58' E 015°38'1 1.3
2018-Jun-18 08:29N 68°58' E 015°40'510.5
2018-Jun-18 08:01N 68°59' E 015°54'713.9
2018-Jun-18 07:30N 68°57' E 016°12'714.0
2018-Jun-18 07:00N 68°52' E 016°27'5 9.9
2018-Jun-18 06:30N 68°48' E 016°33'0 0.4
2018-Jun-18 06:00N 68°48' E 016°33'5 9.5
2018-Jun-18 05:30N 68°51' E 016°43'713.9
2018-Jun-18 05:00N 68°55' E 016°58'714.2
2018-Jun-18 04:30N 68°60' E 017°13'714.2
2018-Jun-18 04:00N 69°06' E 017°25'714.8
2018-Jun-18 03:30N 69°08' E 017°44'714.2
2018-Jun-18 03:00N 69°12' E 018°01'2 4.4
2018-Jun-18 02:30N 69°14' E 017°58'2 4.6
2018-Jun-18 02:00N 69°16' E 017°58'713.5
2018-Jun-18 01:29N 69°23' E 018°05'713.6
2018-Jun-18 00:59N 69°29' E 018°11'715.0
2018-Jun-18 00:30N 69°32' E 018°30'713.0
2018-Jun-18 00:00N 69°34' E 018°48'611.9
2018-Jun-17 23:30N 69°39' E 018°58'0 0.0
2018-Jun-17 22:59N 69°39' E 018°58'0 0.0
2018-Jun-17 22:29N 69°39' E 018°58'0 0.0
2018-Jun-17 21:59N 69°39' E 018°58'1 1.3
2018-Jun-17 21:30N 69°39' E 018°59'713.9
2018-Jun-17 21:00N 69°46' E 019°06'814.9
2018-Jun-17 20:29N 69°49' E 019°27'714.8
2018-Jun-17 20:00N 69°51' E 019°46'815.1
2018-Jun-17 19:30N 69°56' E 020°03'714.5
2018-Jun-17 19:00N 69°60' E 020°21'714.6
2018-Jun-17 18:30N 70°02' E 020°42'713.7
2018-Jun-17 18:00N 70°04' E 021°01'2 3.5
2018-Jun-17 17:31N 70°02' E 020°59'712.8
2018-Jun-17 16:59N 70°08' E 021°05'713.9
2018-Jun-17 16:30N 70°15' E 021°12'714.7
2018-Jun-17 16:00N 70°19' E 021°29'4 8.7
2018-Jun-17 15:30N 70°16' E 021°39'611.6
2018-Jun-17 15:00N 70°20' E 021°53'612.8
2018-Jun-17 14:30N 70°19' E 022°11'510.7
2018-Jun-17 13:59N 70°14' E 022°21'2 4.5
2018-Jun-17 13:30N 70°16' E 022°19'713.6
2018-Jun-17 13:00N 70°23' E 022°23'714.3
2018-Jun-17 12:30N 70°27' E 022°41'714.1
2018-Jun-17 12:00N 70°31' E 022°58'714.3
2018-Jun-17 11:31N 70°36' E 023°14'714.8
2018-Jun-17 11:00N 70°39' E 023°34'2 4.7
2018-Jun-17 10:30N 70°40' E 023°41'0 0.0
2018-Jun-17 10:01N 70°40' E 023°41'0 0.0
2018-Jun-17 09:30N 70°40' E 023°41'0 0.0
2018-Jun-17 09:00N 70°40' E 023°41'3 6.7
2018-Jun-17 08:30N 70°43' E 023°35'713.6
2018-Jun-17 08:00N 70°48' E 023°47'713.8
2018-Jun-17 07:30N 70°53' E 024°02'714.4
2018-Jun-17 07:00N 70°57' E 024°19'713.5
2018-Jun-17 06:30N 71°02' E 024°35'3 6.1
2018-Jun-17 06:00N 70°60' E 024°41'510.4
2018-Jun-17 05:30N 70°59' E 024°57'713.8
2018-Jun-17 05:00N 70°59' E 025°19'612.2
2018-Jun-17 04:30N 70°56' E 025°34'714.0
2018-Jun-17 04:00N 70°58' E 025°55'2 3.5
2018-Jun-17 03:30N 70°59' E 025°58'2 3.7
2018-Jun-17 03:00N 70°58' E 026°03'714.8
2018-Jun-17 02:30N 70°59' E 026°25'713.8
2018-Jun-17 02:00N 70°59' E 026°47'714.2
2018-Jun-17 01:30N 70°59' E 027°08'5 9.0
2018-Jun-17 01:00N 70°57' E 027°20'611.8
2018-Jun-17 00:30N 71°02' E 027°10'714.6
2018-Jun-17 00:00N 71°06' E 027°28'612.5
2018-Jun-16 23:30N 71°07' E 027°47'3 3.8
2018-Jun-16 22:37N 71°04' E 027°52'214.0
2018-Jun-16 22:30N 71°05' E 027°56'714.3
2018-Jun-16 21:58N 71°07' E 028°18'715.2
2018-Jun-16 21:30N 71°02' E 028°36'715.0
2018-Jun-16 21:00N 70°57' E 028°53'714.0
2018-Jun-16 20:30N 70°53' E 029°09'1 2.4
2018-Jun-16 20:00N 70°52' E 029°07'612.8
2018-Jun-16 19:30N 70°50' E 029°25'715.0
2018-Jun-16 19:00N 70°45' E 029°44'613.1
2018-Jun-16 18:30N 70°39' E 029°48'2 3.7
2018-Jun-16 18:00N 70°38' E 029°44'510.5
2018-Jun-16 17:30N 70°42' E 029°54'612.5
2018-Jun-16 16:58N 70°42' E 030°13'714.3
2018-Jun-16 16:30N 70°38' E 030°28'714.4
2018-Jun-16 16:00N 70°32' E 030°44'713.6
2018-Jun-16 15:30N 70°28' E 030°58'611.9
2018-Jun-16 15:00N 70°23' E 031°06'0 0.0
2018-Jun-16 14:30N 70°23' E 031°06'0 0.1
2018-Jun-16 14:00N 70°22' E 031°06'4 8.0
2018-Jun-16 13:30N 70°18' E 031°07'714.2
2018-Jun-16 13:00N 70°13' E 030°55'714.5
2018-Jun-16 12:30N 70°07' E 030°41'714.5
2018-Jun-16 12:00N 70°01' E 030°28'714.5
2018-Jun-16 11:30N 69°56' E 030°15'714.6
2018-Jun-16 11:00N 69°49' E 030°06'510.5
2018-Jun-16 10:30N 69°44' E 030°04'0 0.0
2018-Jun-16 09:57N 69°44' E 030°04'0 0.0
2018-Jun-16 09:30N 69°44' E 030°04'0 0.0
2018-Jun-16 09:00N 69°44' E 030°04'0 0.0
2018-Jun-16 08:30N 69°44' E 030°04'0 0.0
2018-Jun-16 08:00N 69°44' E 030°04'0 0.0
2018-Jun-16 07:30N 69°44' E 030°04'0 0.7
2018-Jun-16 07:00N 69°44' E 030°04'612.6
2018-Jun-16 06:30N 69°50' E 030°05'713.9
2018-Jun-16 06:00N 69°56' E 029°55'714.5
2018-Jun-16 05:30N 70°03' E 029°44'2 3.4
2018-Jun-16 05:00N 70°04' E 029°44'1 1.4
2018-Jun-16 04:30N 70°04' E 029°42'712.8
2018-Jun-16 03:59N 70°03' E 030°01'714.1
2018-Jun-16 03:30N 70°05' E 030°20'714.5
2018-Jun-16 03:00N 70°09' E 030°38'714.7
2018-Jun-16 02:30N 70°13' E 030°55'714.5
2018-Jun-16 02:00N 70°19' E 031°07'3 6.4
2018-Jun-16 01:30N 70°23' E 031°06'4 8.3
2018-Jun-16 01:00N 70°26' E 031°01'714.6
2018-Jun-16 00:30N 70°32' E 030°46'714.6
2018-Jun-16 00:00N 70°37' E 030°30'714.2
2018-Jun-15 23:30N 70°42' E 030°15'612.5
2018-Jun-15 23:00N 70°43' E 029°57'712.9
2018-Jun-15 22:30N 70°38' E 029°44'1 1.9
2018-Jun-15 22:00N 70°38' E 029°46'612.0
2018-Jun-15 21:30N 70°44' E 029°48'612.7
2018-Jun-15 21:00N 70°48' E 029°32'713.3
2018-Jun-15 20:30N 70°52' E 029°15'612.1
2018-Jun-15 20:00N 70°55' E 028°60'612.7
2018-Jun-15 19:29N 70°60' E 028°45'713.2
2018-Jun-15 19:00N 71°04' E 028°29'713.5
2018-Jun-15 18:30N 71°07' E 028°12'8 6.4
2018-Jun-15 17:13N 71°04' E 027°50'313.8
2018-Jun-15 17:00N 71°07' E 027°47'611.7
2018-Jun-15 16:30N 71°07' E 027°29'815.5
2018-Jun-15 15:59N 71°01' E 027°11'510.9
2018-Jun-15 15:30N 70°57' E 027°20'3 6.4
2018-Jun-15 15:00N 70°59' E 027°12'714.8
2018-Jun-15 14:30N 70°59' E 026°50'815.3
2018-Jun-15 14:00N 70°59' E 026°26'714.6
2018-Jun-15 13:30N 70°58' E 026°04'2 4.5
2018-Jun-15 13:00N 70°59' E 025°58'0 0.5
2018-Jun-15 12:29N 70°59' E 025°58'0 0.0
2018-Jun-15 11:59N 70°59' E 025°58'0 0.0
2018-Jun-15 11:29N 70°59' E 025°58'0 0.0
2018-Jun-15 10:59N 70°59' E 025°58'0 0.0
2018-Jun-15 10:29N 70°59' E 025°58'0 0.0
2018-Jun-15 09:59N 70°59' E 025°58'0 0.0
2018-Jun-15 09:30N 70°59' E 025°58'4 7.1
2018-Jun-15 08:59N 70°57' E 025°50'613.1
2018-Jun-15 08:29N 70°56' E 025°30'612.2
2018-Jun-15 08:00N 70°59' E 025°13'713.5
2018-Jun-15 07:29N 70°60' E 024°52'4 7.0
2018-Jun-15 06:59N 70°60' E 024°41'1 1.4
2018-Jun-15 06:30N 70°60' E 024°43'5 9.6
2018-Jun-15 05:59N 71°00' E 024°28'715.0
2018-Jun-15 05:29N 70°55' E 024°12'815.3
2018-Jun-15 05:00N 70°50' E 023°55'815.8
2018-Jun-15 04:30N 70°45' E 023°38'5 9.7
2018-Jun-15 04:00N 70°40' E 023°41'0 0.0
2018-Jun-15 03:30N 70°40' E 023°41'0 0.1
2018-Jun-15 03:00N 70°40' E 023°41'612.1
2018-Jun-15 02:30N 70°38' E 023°24'815.6
2018-Jun-15 02:00N 70°33' E 023°05'815.9
2018-Jun-15 01:30N 70°28' E 022°46'815.4
2018-Jun-15 01:00N 70°24' E 022°27'713.7
2018-Jun-15 00:30N 70°18' E 022°18'4 7.1
2018-Jun-15 00:00N 70°14' E 022°21'510.7
2018-Jun-14 23:30N 70°19' E 022°12'714.0
2018-Jun-14 23:00N 70°22' E 021°54'612.1
2018-Jun-14 22:30N 70°22' E 021°36'715.3
2018-Jun-14 22:01N 70°17' E 021°21'714.1
2018-Jun-14 21:30N 70°11' E 021°08'714.9
2018-Jun-14 21:00N 70°04' E 021°03'2 4.8
2018-Jun-14 20:30N 70°02' E 020°59'3 7.0
2018-Jun-14 20:00N 70°03' E 020°50'714.0
2018-Jun-14 19:30N 70°00' E 020°31'713.9
2018-Jun-14 19:00N 69°58' E 020°11'714.6
2018-Jun-14 18:30N 69°54' E 019°55'714.3
2018-Jun-14 18:00N 69°50' E 019°37'714.2
2018-Jun-14 17:30N 69°47' E 019°18'612.8
2018-Jun-14 17:00N 69°43' E 019°03'5 9.6
2018-Jun-14 16:30N 69°39' E 018°58'0 0.0
2018-Jun-14 16:00N 69°39' E 018°58'0 0.0
2018-Jun-14 15:30N 69°39' E 018°58'0 0.0
2018-Jun-14 15:00N 69°39' E 018°58'0 0.0
2018-Jun-14 14:30N 69°39' E 018°58'0 0.0
2018-Jun-14 14:00N 69°39' E 018°58'0 0.0
2018-Jun-14 13:30N 69°39' E 018°58'0 0.0
2018-Jun-14 13:00N 69°39' E 018°58'0 0.0
2018-Jun-14 12:30N 69°39' E 018°58'3 6.6
2018-Jun-14 12:00N 69°36' E 018°53'714.1
2018-Jun-14 11:31N 69°32' E 018°36'714.5
2018-Jun-14 11:00N 69°30' E 018°17'612.5
2018-Jun-14 10:30N 69°24' E 018°07'613.0
2018-Jun-14 10:00N 69°19' E 017°59'510.0
2018-Jun-14 09:30N 69°14' E 017°58'0 0.0
2018-Jun-14 09:00N 69°14' E 017°58'4 7.5
2018-Jun-14 08:30N 69°10' E 017°58'713.8
2018-Jun-14 08:00N 69°07' E 017°40'713.7
2018-Jun-14 07:30N 69°04' E 017°23'713.8
2018-Jun-14 07:00N 68°59' E 017°11'714.0
2018-Jun-14 06:30N 68°54' E 016°56'714.3
2018-Jun-14 06:00N 68°50' E 016°40'3 6.2
2018-Jun-14 05:29N 68°48' E 016°33'0 0.0
2018-Jun-14 04:59N 68°48' E 016°33'1 1.8
2018-Jun-14 04:30N 68°49' E 016°35'611.1
2018-Jun-14 04:00N 68°53' E 016°25'713.7
2018-Jun-14 03:30N 68°57' E 016°10'713.9
2018-Jun-14 03:00N 68°59' E 015°51'5 9.5
2018-Jun-14 02:30N 68°58' E 015°39'4 7.6
2018-Jun-14 02:00N 68°55' E 015°35'714.0
2018-Jun-14 01:29N 68°48' E 015°26'612.3
2018-Jun-14 01:00N 68°42' E 015°25'4 7.4
2018-Jun-14 00:30N 68°38' E 015°23'714.5
2018-Jun-14 00:00N 68°34' E 015°06'4 8.2
2018-Jun-13 23:30N 68°34' E 014°55'5 9.0
2018-Jun-13 23:00N 68°32' E 015°06'611.5
2018-Jun-13 22:30N 68°27' E 015°11'715.2
2018-Jun-13 22:00N 68°20' E 015°01'2 3.8
2018-Jun-13 21:30N 68°22' E 014°58'611.5
2018-Jun-13 21:00N 68°16' E 014°57'510.2
2018-Jun-13 20:30N 68°14' E 014°45'4 8.1
2018-Jun-13 20:00N 68°14' E 014°34'0 0.0
2018-Jun-13 19:29N 68°14' E 014°34'0 0.1
2018-Jun-13 19:00N 68°14' E 014°34'510.9
2018-Jun-13 18:31N 68°11' E 014°22'714.3
2018-Jun-13 18:00N 68°07' E 014°06'611.6
2018-Jun-13 17:30N 68°07' E 013°50'0 0.0
2018-Jun-13 17:00N 68°07' E 013°50'3 6.4
2018-Jun-13 16:30N 68°04' E 013°52'815.3
2018-Jun-13 16:00N 67°57' E 013°59'715.2
2018-Jun-13 15:30N 67°50' E 014°06'815.1
2018-Jun-13 14:59N 67°42' E 014°12'715.1
2018-Jun-13 14:30N 67°35' E 014°19'715.0
2018-Jun-13 14:00N 67°28' E 014°23'713.7
2018-Jun-13 13:30N 67°21' E 014°24'4 8.3
2018-Jun-13 13:00N 67°17' E 014°23'0 0.0
2018-Jun-13 12:28N 67°17' E 014°23'0 0.0
2018-Jun-13 11:58N 67°17' E 014°23'0 0.0
2018-Jun-13 11:28N 67°17' E 014°23'0 0.0
2018-Jun-13 10:58N 67°17' E 014°23'0 0.0
2018-Jun-13 10:28N 67°17' E 014°23'3 6.6
2018-Jun-13 10:01N 67°16' E 014°17'715.0
2018-Jun-13 09:31N 67°10' E 014°03'815.1
2018-Jun-13 09:01N 67°04' E 013°53'714.9
2018-Jun-13 08:31N 66°60' E 013°37'612.3
2018-Jun-13 08:00N 66°54' E 013°31'5 9.5
2018-Jun-13 07:30N 66°52' E 013°42'5 9.1
2018-Jun-13 07:00N 66°49' E 013°33'4 8.1
2018-Jun-13 06:30N 66°48' E 013°23'714.2
2018-Jun-13 06:00N 66°43' E 013°11'714.9
2018-Jun-13 05:31N 66°36' E 013°04'612.3
2018-Jun-13 05:00N 66°30' E 012°59'714.8
2018-Jun-13 04:30N 66°23' E 012°58'815.2
2018-Jun-13 03:59N 66°15' E 012°54'4 7.8
2018-Jun-13 03:30N 66°12' E 013°00'612.0
2018-Jun-13 03:00N 66°08' E 012°50'714.3
2018-Jun-13 02:30N 66°02' E 012°38'1 1.9
2018-Jun-13 02:00N 66°01' E 012°38'3 7.0
2018-Jun-13 01:30N 65°60' E 012°31'714.5
2018-Jun-13 01:00N 65°53' E 012°22'814.7
2018-Jun-13 00:29N 65°46' E 012°19'714.7
2018-Jun-13 00:00N 65°39' E 012°15'714.7
2018-Jun-12 23:29N 65°32' E 012°12'  

Dump ship's entire track history